Time;durP1;ratioP1;P1;durP2;ratioP2;P2;SDS_P1;SDS_P2;PMS_P1;PMS_P2;Temp;Humidity;BMP_temperature;BMP_pressure;BME280_temperature;BME280_humidity;BME280_pressure;Samples;Min_cycle;Max_cycle;Signal;HPM_P1;HPM_P2
2022/12/28 00:01:11;;;;;;;;;4.00;3.75;;;;;10.52;71.55;101783.66;6214754;22;45756;-80
2022/12/28 00:03:37;;;;;;;;;4.75;4.00;;;;;10.54;71.96;101765.28;6213646;22;45257;-79
2022/12/28 00:06:03;;;;;;;;;3.50;3.50;;;;;10.57;72.08;101765.31;6215073;22;45263;-82
2022/12/28 00:08:29;;;;;;;;;4.75;3.50;;;;;10.55;71.63;101760.00;6213366;22;45225;-81
2022/12/28 00:11:11;;;;;;;;;7.00;5.00;;;;;10.56;71.82;101756.53;6214983;22;45730;-81
2022/12/28 00:13:36;;;;;;;;;4.25;4.25;;;;;10.56;71.73;101763.56;6216335;22;45225;-81
2022/12/28 00:16:27;;;;;;;;;6.50;4.75;;;;;10.63;71.67;101765.38;6214942;22;45222;-80
2022/12/28 00:18:53;;;;;;;;;4.50;4.00;;;;;10.59;71.84;101760.94;6207279;22;45348;-80
2022/12/28 00:21:19;;;;;;;;;4.00;3.00;;;;;10.65;71.76;101757.50;6214315;22;47013;-81
2022/12/28 00:23:48;;;;;;;;;3.25;3.25;;;;;10.56;71.84;101726.69;6216413;22;45411;-81
2022/12/28 00:26:13;;;;;;;;;5.25;5.25;;;;;10.63;71.69;101740.78;6189173;22;45342;-80
2022/12/28 00:28:39;;;;;;;;;7.00;5.50;;;;;10.62;71.64;101739.03;6214200;22;45411;-80
2022/12/28 00:31:05;;;;;;;;;4.00;4.00;;;;;10.61;71.63;101727.59;6215724;22;46124;-80
2022/12/28 00:33:30;;;;;;;;;5.00;5.00;;;;;10.65;71.74;101733.81;6215916;22;45138;-80
2022/12/28 00:35:58;;;;;;;;;5.00;3.75;;;;;10.55;71.78;101704.72;6216595;22;45427;-80
2022/12/28 00:38:24;;;;;;;;;4.00;4.00;;;;;10.63;72.08;101717.09;6216116;22;45293;-80
2022/12/28 00:40:50;;;;;;;;;3.50;3.50;;;;;10.64;71.59;101701.34;6216318;22;45348;-80
2022/12/28 00:43:17;;;;;;;;;4.00;4.00;;;;;10.69;71.64;101709.25;6188793;22;45237;-80
2022/12/28 00:45:46;;;;;;;;;4.00;4.00;;;;;10.70;71.60;101714.56;6216939;22;45186;-79
2022/12/28 00:48:12;;;;;;;;;4.00;4.00;;;;;10.71;71.56;101702.25;6213988;22;45868;-80
2022/12/28 00:50:38;;;;;;;;;6.00;6.00;;;;;10.68;71.54;101691.69;6216720;22;45439;-80
2022/12/28 00:53:04;;;;;;;;;4.50;2.25;;;;;10.70;71.62;101693.50;6215947;22;45387;-80
2022/12/28 00:55:29;;;;;;;;;3.50;3.00;;;;;10.73;71.44;101704.06;6216429;22;45340;-80
2022/12/28 00:57:58;;;;;;;;;5.00;4.00;;;;;10.72;71.06;101697.03;6189120;22;45604;-83
2022/12/28 01:00:23;;;;;;;;;8.00;6.25;;;;;10.67;71.55;101700.47;6213368;22;47149;-81
2022/12/28 01:02:50;;;;;;;;;6.50;4.00;;;;;10.74;71.87;101694.41;6215676;22;45166;-81
2022/12/28 01:05:15;;;;;;;;;4.25;3.50;;;;;10.76;71.93;101704.09;6216669;22;45202;-81
2022/12/28 01:07:41;;;;;;;;;3.00;3.00;;;;;10.71;71.79;101695.25;6216785;22;45491;-81
2022/12/28 01:10:07;;;;;;;;;5.25;5.00;;;;;10.70;71.90;101697.88;6216172;22;46097;-81
2022/12/28 01:12:32;;;;;;;;;3.00;2.67;;;;;10.74;71.91;101699.66;6216623;22;45372;-81
2022/12/28 01:14:58;;;;;;;;;4.00;3.00;;;;;10.70;72.11;101680.31;6216523;22;45295;-81
2022/12/28 01:17:23;;;;;;;;;3.75;3.75;;;;;10.73;72.14;101684.75;6189085;22;45411;-81
2022/12/28 01:19:49;;;;;;;;;5.00;4.75;;;;;10.72;72.16;101689.13;6189101;22;47045;-81
2022/12/28 01:22:14;;;;;;;;;5.25;3.00;;;;;10.72;72.13;101688.22;6189238;22;45309;-81
2022/12/28 01:24:39;;;;;;;;;3.50;3.00;;;;;10.72;72.05;101689.13;6189291;22;45360;-80
2022/12/28 01:27:05;;;;;;;;;3.50;2.75;;;;;10.69;72.15;101677.66;6216324;22;45335;-80
2022/12/28 01:29:31;;;;;;;;;4.00;3.00;;;;;10.72;72.15;101681.22;6189178;22;46817;-80
2022/12/28 01:31:56;;;;;;;;;3.50;3.25;;;;;10.65;72.35;101665.34;6188911;22;45270;-80
2022/12/28 01:34:22;;;;;;;;;4.50;4.00;;;;;10.69;72.13;101661.84;6216443;22;45152;-80
2022/12/28 01:36:47;;;;;;;;;3.50;1.25;;;;;10.69;71.95;101668.03;6216167;22;45506;-80
2022/12/28 01:39:12;;;;;;;;;5.25;3.75;;;;;10.69;71.91;101660.13;6188867;22;47196;-80
2022/12/28 01:41:40;;;;;;;;;4.50;4.50;;;;;10.70;71.77;101667.16;6216254;22;45204;-80
2022/12/28 01:44:12;;;;;;;;;4.00;4.00;;;;;10.74;71.85;101665.41;6189383;22;45222;-80
2022/12/28 01:47:01;;;;;;;;;3.50;3.50;;;;;10.75;71.74;101676.00;6216164;22;45149;-81
2022/12/28 01:49:30;;;;;;;;;4.25;4.25;;;;;10.72;71.84;101673.31;6216157;22;45599;-80
2022/12/28 01:52:03;;;;;;;;;3.25;3.25;;;;;10.73;71.66;101661.03;6215914;22;45311;-80
2022/12/28 01:54:33;;;;;;;;;3.75;3.75;;;;;10.76;71.79;101682.13;6217691;22;45364;-80
2022/12/28 01:56:59;;;;;;;;;4.00;4.00;;;;;10.79;71.65;101661.09;6217758;22;45150;-81
2022/12/28 01:59:30;;;;;;;;;3.50;3.00;;;;;10.76;71.88;101648.78;6191149;22;48350;-81
2022/12/28 02:01:55;;;;;;;;;3.00;3.00;;;;;10.78;71.59;101648.81;6217325;22;45320;-80
2022/12/28 02:04:21;;;;;;;;;6.00;5.00;;;;;10.79;71.77;101643.53;6190458;22;45155;-81
2022/12/28 02:06:47;;;;;;;;;2.75;2.00;;;;;10.78;71.60;101641.78;6190620;22;45564;-80
2022/12/28 02:09:18;;;;;;;;;2.50;2.50;;;;;10.85;71.94;101641.81;6199420;22;47722;-80
2022/12/28 02:11:44;;;;;;;;;3.50;3.00;;;;;10.88;71.58;101645.41;6220663;22;45675;-80
2022/12/28 02:14:12;;;;;;;;;3.00;3.00;;;;;10.84;71.55;101642.72;6220759;22;45332;-81
2022/12/28 02:16:38;;;;;;;;;3.00;2.25;;;;;10.88;71.64;101636.59;6220682;22;45254;-80
2022/12/28 02:19:05;;;;;;;;;3.00;3.00;;;;;10.89;71.35;101639.25;6245408;22;48133;-81
2022/12/28 02:22:05;;;;;;;;;3.25;3.25;;;;;10.92;71.67;101634.00;6248254;22;45153;-80
2022/12/28 02:25:13;;;;;;;;;5.25;3.00;;;;;10.92;71.66;101627.84;6239428;22;45529;-81
2022/12/28 02:27:54;;;;;;;;;3.50;2.25;;;;;10.93;71.57;101635.78;6220291;22;45142;-81
2022/12/28 02:30:20;;;;;;;;;4.75;3.25;;;;;10.86;71.39;101622.53;6220196;22;47420;-81
2022/12/28 02:33:05;;;;;;;;;3.25;3.00;;;;;10.88;71.54;101621.69;6247697;22;45357;-80
2022/12/28 02:35:52;;;;;;;;;5.25;3.75;;;;;10.94;71.58;101629.63;6248330;22;45213;-80
2022/12/28 02:38:25;;;;;;;;;4.75;3.75;;;;;10.95;71.43;101630.50;6248153;22;45279;-81
2022/12/28 02:40:57;;;;;;;;;2.75;2.75;;;;;10.92;71.45;101612.91;6247790;22;45442;-81
2022/12/28 02:43:22;;;;;;;;;0.67;0.00;;;;;10.96;71.59;101625.28;6248143;22;45257;-80
2022/12/28 02:51:28;;;;;;;;;4.00;3.75;;;;;11.02;71.54;101616.53;6247667;22;45439;-81
2022/12/28 02:53:56;;;;;;;;;3.25;3.00;;;;;11.02;71.40;101613.91;6247921;22;45244;-80
2022/12/28 02:56:54;;;;;;;;;3.50;3.25;;;;;11.06;71.37;101607.75;6247850;22;45224;-81
2022/12/28 02:59:58;;;;;;;;;5.25;4.00;;;;;11.08;71.45;101611.31;6246489;22;45446;-80
2022/12/28 03:02:53;;;;;;;;;4.25;4.00;;;;;11.07;71.29;101606.91;6247662;22;45333;-81
2022/12/28 03:09:01;;;;;;;;;3.75;3.75;;;;;11.08;71.55;101590.22;6247282;22;45347;-81
2022/12/28 03:11:41;;;;;;;;;4.00;2.25;;;;;11.14;70.98;101594.66;6199786;22;46738;-80
2022/12/28 03:14:16;;;;;;;;;2.75;2.75;;;;;11.14;71.13;101595.53;6217220;22;45631;-81
2022/12/28 03:31:05;;;;;;;;;5.25;4.75;;;;;11.19;70.83;101574.50;6217016;22;45127;-80
2022/12/28 03:33:37;;;;;;;;;4.00;4.00;;;;;11.22;71.15;101582.41;6189786;22;45851;-80
2022/12/28 03:36:32;;;;;;;;;3.25;3.25;;;;;11.22;71.32;101574.50;6217066;22;46020;-80
2022/12/28 03:39:41;;;;;;;;;5.50;5.50;;;;;11.24;71.12;101562.22;6162343;22;45338;-81
2022/12/28 03:45:09;;;;;;;;;5.25;4.25;;;;;11.25;70.90;101550.81;6216928;22;45205;-80
2022/12/28 03:47:36;;;;;;;;;3.75;3.75;;;;;11.21;70.75;101557.81;6216525;22;45237;-80
2022/12/28 03:50:03;;;;;;;;;8.75;6.50;;;;;11.22;70.97;101543.75;6217188;22;45213;-80
2022/12/28 03:52:31;;;;;;;;;4.00;4.00;;;;;11.25;71.04;101546.44;6189949;22;45311;-80
2022/12/28 03:54:56;;;;;;;;;4.00;3.50;;;;;11.18;70.96;101534.09;6189844;22;45367;-80
2022/12/28 03:57:22;;;;;;;;;7.00;5.00;;;;;11.21;71.08;101536.72;6217169;22;45220;-80
2022/12/28 03:59:47;;;;;;;;;3.00;3.00;;;;;11.28;71.21;101542.94;6216982;22;45134;-81
2022/12/28 04:02:13;;;;;;;;;4.25;4.00;;;;;11.24;71.12;101541.13;6217469;22;45870;-80
2022/12/28 04:04:38;;;;;;;;;2.75;2.75;;;;;11.20;71.07;101526.16;6217247;22;45229;-80
2022/12/28 04:07:03;;;;;;;;;4.75;3.75;;;;;11.22;71.22;101524.44;6215345;22;47013;-79
2022/12/28 04:09:31;;;;;;;;;4.50;4.00;;;;;11.22;71.15;101527.94;6216945;22;45197;-80
2022/12/28 04:11:56;;;;;;;;;4.50;4.00;;;;;11.23;71.16;101526.22;6217491;22;45351;-80
2022/12/28 04:14:22;;;;;;;;;4.25;4.25;;;;;11.15;71.20;101512.97;6217242;22;45316;-81
2022/12/28 04:16:47;;;;;;;;;5.75;5.75;;;;;11.19;71.06;101513.88;6189426;22;48247;-81
2022/12/28 04:19:13;;;;;;;;;5.00;4.00;;;;;11.23;71.14;101521.81;6214714;22;45636;-80
2022/12/28 04:21:38;;;;;;;;;4.25;4.25;;;;;11.19;71.14;101505.97;6217386;22;45287;-80
2022/12/28 04:24:04;;;;;;;;;4.50;4.50;;;;;11.18;71.20;101501.56;6216875;22;45294;-80
2022/12/28 04:26:29;;;;;;;;;6.25;5.50;;;;;11.24;71.50;101520.06;6189502;22;47140;-80
2022/12/28 04:29:00;;;;;;;;;5.25;5.00;;;;;11.18;71.31;101505.09;6216679;22;45340;-80
2022/12/28 04:31:26;;;;;;;;;4.75;4.25;;;;;11.20;71.38;101498.06;6217150;22;45190;-80
2022/12/28 04:33:51;;;;;;;;;4.00;3.25;;;;;11.17;71.11;101498.06;6216462;22;45363;-80
2022/12/28 04:36:17;;;;;;;;;3.00;3.00;;;;;11.18;71.63;101497.19;6217030;22;45317;-81
2022/12/28 04:38:42;;;;;;;;;2.00;2.00;;;;;11.13;71.19;101491.00;6216766;22;45319;-80
2022/12/28 04:41:09;;;;;;;;;3.00;3.00;;;;;11.19;71.47;101500.69;6217187;22;45364;-80
2022/12/28 04:43:36;;;;;;;;;3.25;3.25;;;;;11.12;71.56;101483.06;6189407;22;45371;-80
2022/12/28 04:46:14;;;;;;;;;6.75;3.50;;;;;11.17;71.39;101492.78;6189544;22;47257;-80
2022/12/28 04:48:40;;;;;;;;;4.50;4.00;;;;;11.20;71.66;101494.53;6188635;22;45231;-80
2022/12/28 04:51:09;;;;;;;;;3.75;3.50;;;;;11.12;71.56;101483.06;6217014;22;45131;-80
2022/12/28 04:53:39;;;;;;;;;3.00;3.00;;;;;11.20;71.57;101502.44;6188981;22;45364;-81
2022/12/28 04:56:07;;;;;;;;;4.75;4.00;;;;;11.18;71.82;101488.41;6189328;22;46257;-80
2022/12/28 04:58:32;;;;;;;;;4.00;3.25;;;;;11.15;71.88;101476.09;6189269;22;46161;-80
2022/12/28 05:01:06;;;;;;;;;4.00;2.00;;;;;11.16;71.79;101482.22;6216868;22;45406;-80
2022/12/28 05:03:31;;;;;;;;;3.50;2.50;;;;;11.11;71.97;101474.28;6216208;22;45261;-80
2022/12/28 05:06:05;;;;;;;;;5.00;4.00;;;;;11.11;72.19;101476.94;6188895;22;46204;-80
2022/12/28 05:08:34;;;;;;;;;4.50;4.00;;;;;11.10;72.15;101471.66;6215562;22;45259;-80
2022/12/28 05:11:04;;;;;;;;;3.75;3.75;;;;;11.10;72.22;101480.44;6216703;22;45347;-80
2022/12/28 05:13:30;;;;;;;;;6.00;3.67;;;;;11.10;72.20;101472.53;6189372;22;45398;-80
2022/12/28 05:16:00;;;;;;;;;5.00;4.00;;;;;11.06;72.51;101461.97;6216210;22;45208;-80
2022/12/28 05:18:25;;;;;;;;;2.50;2.50;;;;;11.09;72.52;101472.50;6189073;22;45727;-80
2022/12/28 05:20:58;;;;;;;;;2.00;2.00;;;;;11.01;72.69;101457.56;6216665;22;46024;-80
2022/12/28 05:23:24;;;;;;;;;3.00;3.00;;;;;11.02;72.84;101453.16;6189321;22;45379;-81
2022/12/28 05:25:53;;;;;;;;;2.25;2.25;;;;;11.01;72.83;101464.56;6216091;22;46095;-80
2022/12/28 05:28:18;;;;;;;;;4.00;3.00;;;;;11.01;72.93;101462.84;6216873;22;45238;-80
2022/12/28 05:30:43;;;;;;;;;3.75;3.00;;;;;10.99;72.88;101459.31;6190340;22;45235;-81
2022/12/28 05:33:09;;;;;;;;;2.50;2.50;;;;;10.99;73.00;101458.44;6217648;22;45184;-80
2022/12/28 05:35:34;;;;;;;;;4.75;3.00;;;;;11.04;73.25;101452.31;6190075;22;47261;-80
2022/12/28 05:37:59;;;;;;;;;4.00;3.50;;;;;11.01;72.99;101454.94;6217842;22;45242;-80
2022/12/28 05:40:25;;;;;;;;;5.50;4.50;;;;;11.01;73.10;101457.56;6190693;22;45400;-80
2022/12/28 05:42:50;;;;;;;;;6.00;5.00;;;;;10.92;73.28;101448.72;6217719;22;45099;-80
2022/12/28 05:45:16;;;;;;;;;3.00;3.00;;;;;11.03;73.49;101458.44;6217643;22;45193;-80
2022/12/28 05:47:41;;;;;;;;;3.00;2.25;;;;;10.96;73.41;101448.75;6189708;22;45481;-80
2022/12/28 05:50:06;;;;;;;;;3.50;3.00;;;;;11.01;72.89;101451.38;6190600;22;45343;-80
2022/12/28 05:52:32;;;;;;;;;2.67;2.33;;;;;10.99;73.16;101448.75;6217551;22;45318;-80
2022/12/28 05:54:57;;;;;;;;;5.33;4.00;;;;;10.99;73.28;101446.13;6190048;22;47416;-80
2022/12/28 05:57:23;;;;;;;;;3.00;3.00;;;;;10.99;73.20;101442.63;6217700;22;45348;-80
2022/12/28 05:59:48;;;;;;;;;3.67;2.33;;;;;11.05;73.55;101445.28;6217735;22;45422;-80
2022/12/28 06:02:13;;;;;;;;;2.00;2.00;;;;;11.00;73.15;101436.47;6189927;22;45444;-81
2022/12/28 06:04:39;;;;;;;;;3.25;3.25;;;;;11.02;73.27;101434.72;6217466;22;46430;-80
2022/12/28 06:07:04;;;;;;;;;2.00;2.00;;;;;10.99;73.27;101426.81;6217449;22;45332;-80
2022/12/28 06:09:29;;;;;;;;;3.00;3.00;;;;;11.03;73.24;101431.22;6216179;22;45354;-80
2022/12/28 06:11:55;;;;;;;;;2.25;2.25;;;;;11.04;73.28;101425.09;6217863;22;45519;-80
2022/12/28 06:14:20;;;;;;;;;3.75;3.75;;;;;11.03;73.15;101424.19;6190157;22;46988;-80
2022/12/28 06:16:45;;;;;;;;;2.75;2.75;;;;;11.08;73.43;101428.59;6217212;22;45386;-80
2022/12/28 06:19:14;;;;;;;;;2.75;2.75;;;;;11.10;73.46;101417.19;6189882;22;45380;-82
2022/12/28 06:21:40;;;;;;;;;3.50;2.50;;;;;11.12;73.18;101417.19;6217609;22;45410;-80
2022/12/28 06:24:06;;;;;;;;;4.25;3.00;;;;;11.09;73.22;101411.91;6217073;22;45257;-80
2022/12/28 06:26:34;;;;;;;;;4.00;3.00;;;;;11.14;73.18;101408.41;6217523;22;45419;-82
2022/12/28 06:29:03;;;;;;;;;4.25;4.00;;;;;11.16;73.05;101413.72;6217327;22;45303;-82
2022/12/28 06:31:33;;;;;;;;;1.67;1.67;;;;;11.12;73.25;101393.47;6217344;22;45395;-81
2022/12/28 06:34:00;;;;;;;;;2.00;2.00;;;;;11.18;72.98;101406.69;6189852;22;47095;-81
2022/12/28 06:36:48;;;;;;;;;4.75;2.75;;;;;11.09;73.11;101383.78;6190369;22;45892;-83
2022/12/28 06:39:14;;;;;;;;;4.75;2.25;;;;;11.13;72.95;101384.72;6189602;22;45253;-81
2022/12/28 06:41:40;;;;;;;;;3.00;3.00;;;;;11.19;72.80;101392.63;6189800;22;45141;-82
2022/12/28 06:44:11;;;;;;;;;4.00;3.00;;;;;11.17;72.99;101386.47;6189790;22;47010;-82
2022/12/28 06:46:37;;;;;;;;;3.25;3.00;;;;;11.17;72.78;101390.00;6217013;22;45094;-81
2022/12/28 06:49:02;;;;;;;;;7.50;4.75;;;;;11.11;73.04;101370.66;6215034;22;45230;-81
2022/12/28 06:51:35;;;;;;;;;3.00;3.00;;;;;11.18;72.96;101391.75;6217071;22;45422;-83
2022/12/28 06:54:01;;;;;;;;;5.50;5.00;;;;;11.18;72.96;101381.22;6215344;22;47018;-79
2022/12/28 06:56:29;;;;;;;;;2.25;2.25;;;;;11.12;72.73;101377.66;6190122;22;46369;-78
2022/12/28 06:58:59;;;;;;;;;4.00;3.50;;;;;11.07;72.72;101359.22;6190016;22;45241;-81
2022/12/28 07:01:27;;;;;;;;;2.00;2.00;;;;;11.14;72.82;101375.91;6189448;22;45571;-76
2022/12/28 07:03:55;;;;;;;;;5.00;4.75;;;;;11.15;72.71;101373.31;6215756;22;46121;-77
2022/12/28 07:06:23;;;;;;;;;3.67;3.00;;;;;11.11;72.82;101360.97;6188277;22;45341;-80
2022/12/28 07:08:49;;;;;;;;;2.00;2.00;;;;;11.10;72.64;101351.31;6215190;22;45262;-77
2022/12/28 07:11:20;;;;;;;;;3.00;3.00;;;;;11.13;72.93;101361.00;6189839;22;45238;-77
2022/12/28 07:13:46;;;;;;;;;2.00;1.00;;;;;11.20;72.80;101363.66;6217224;22;45575;-78
2022/12/28 07:16:13;;;;;;;;;4.25;2.75;;;;;11.12;72.63;101346.03;6217186;22;45241;-77
2022/12/28 07:18:40;;;;;;;;;4.75;4.00;;;;;11.15;72.68;101343.44;6189722;22;45278;-78
2022/12/28 07:21:11;;;;;;;;;3.00;3.00;;;;;11.19;72.56;101346.06;6217011;22;45204;-80
2022/12/28 07:23:37;;;;;;;;;3.50;3.50;;;;;11.24;72.65;101348.72;6189428;22;46218;-77
2022/12/28 07:26:12;;;;;;;;;3.50;3.50;;;;;11.21;72.52;101339.06;6217097;22;45277;-78
2022/12/28 07:28:39;;;;;;;;;4.50;4.00;;;;;11.21;72.70;101327.66;6189368;22;45364;-78
2022/12/28 07:31:09;;;;;;;;;4.67;3.67;;;;;11.22;72.53;101335.53;6216866;22;45487;-79
2022/12/28 07:33:35;;;;;;;;;4.75;4.50;;;;;11.23;72.47;101332.03;6216383;22;45599;-79
2022/12/28 07:36:02;;;;;;;;;3.00;3.00;;;;;11.19;72.41;101324.13;6216873;22;45232;-79
2022/12/28 07:38:27;;;;;;;;;3.00;2.00;;;;;11.15;72.50;101323.25;6217276;22;45326;-79
2022/12/28 07:41:04;;;;;;;;;4.25;4.00;;;;;11.18;72.60;101310.06;6217056;22;45253;-78
2022/12/28 07:43:30;;;;;;;;;2.00;2.00;;;;;11.21;72.35;101327.66;6189620;22;46000;-79
2022/12/28 07:46:02;;;;;;;;;4.25;2.75;;;;;11.23;72.39;101316.22;6189833;22;45368;-79
2022/12/28 07:48:30;;;;;;;;;3.25;3.00;;;;;11.23;72.47;101315.34;6213223;22;45457;-78
2022/12/28 07:50:55;;;;;;;;;2.50;2.00;;;;;11.19;72.47;101313.56;6211785;22;46135;-77
2022/12/28 07:53:21;;;;;;;;;2.25;2.25;;;;;11.19;72.24;101318.84;6187363;22;47532;-78
2022/12/28 07:55:57;;;;;;;;;1.75;1.75;;;;;11.18;72.46;101296.00;6187083;22;45611;-78
2022/12/28 07:58:23;;;;;;;;;3.25;2.75;;;;;11.18;72.42;101290.75;6213503;22;45426;-78
2022/12/28 08:00:49;;;;;;;;;5.75;3.00;;;;;11.17;72.50;101308.31;6184844;22;45430;-78
2022/12/28 08:03:15;;;;;;;;;2.75;2.75;;;;;11.19;72.23;101301.28;6186903;22;47429;-78
